Time;durP1;ratioP1;P1;durP2;ratioP2;P2;SDS_P1;SDS_P2;PMS_P1;PMS_P2;Temp;Humidity;BMP_temperature;BMP_pressure;BME280_temperature;BME280_humidity;BME280_pressure;Samples;Min_cycle;Max_cycle;Signal;HPM_P1;HPM_P2
2022/10/06 00:01:23;;;;;;;9.40;5.00;;;;;;;13.08;69.19;100770.10;103803;1284;108997;-87
2022/10/06 00:03:52;;;;;;;8.80;5.30;;;;;;;13.02;69.36;100765.64;104019;1284;98434;-85
2022/10/06 00:06:21;;;;;;;10.20;5.30;;;;;;;12.98;69.56;100764.70;103908;1284;108635;-84
2022/10/06 00:08:50;;;;;;;10.80;5.20;;;;;;;12.92;69.68;100761.14;103976;1284;95233;-85
2022/10/06 00:11:18;;;;;;;8.90;4.80;;;;;;;12.88;69.80;100758.21;104046;1284;95159;-84
2022/10/06 00:13:46;;;;;;;10.10;5.50;;;;;;;12.82;69.92;100761.23;103786;1284;108348;-86
2022/10/06 00:16:20;;;;;;;9.80;4.90;;;;;;;12.76;70.16;100763.73;103986;1284;100102;-84
2022/10/06 00:19:08;;;;;;;10.40;5.10;;;;;;;12.68;70.27;100760.41;103923;1284;108031;-85
2022/10/06 00:21:36;;;;;;;9.00;5.10;;;;;;;12.66;70.37;100760.66;103756;1284;95671;-84
2022/10/06 00:24:04;;;;;;;9.60;5.50;;;;;;;12.60;70.56;100757.80;103786;1284;95836;-84
2022/10/06 00:26:32;;;;;;;9.20;5.30;;;;;;;12.54;70.79;100756.73;103971;1284;108807;-85
2022/10/06 00:29:20;;;;;;;9.20;5.20;;;;;;;12.50;70.92;100756.48;104152;1284;99007;-86
2022/10/06 00:31:48;;;;;;;10.00;5.40;;;;;;;12.48;71.02;100755.09;103990;1284;109299;-84
2022/10/06 00:34:16;;;;;;;9.70;4.90;;;;;;;12.47;70.93;100754.96;103796;1284;96168;-85
2022/10/06 00:37:04;;;;;;;8.90;4.90;;;;;;;12.46;70.94;100759.63;103742;1284;95590;-83
2022/10/06 00:39:31;;;;;;;9.80;4.80;;;;;;;12.44;71.07;100758.41;103841;1284;108362;-85
2022/10/06 00:41:59;;;;;;;10.10;4.90;;;;;;;12.41;71.17;100756.71;103779;1284;98245;-85
2022/10/06 00:44:28;;;;;;;9.00;5.00;;;;;;;12.37;71.40;100756.30;103924;1284;107724;-85
2022/10/06 00:46:57;;;;;;;7.80;4.60;;;;;;;12.34;71.69;100759.05;103750;1284;95351;-85
2022/10/06 00:49:48;;;;;;;9.30;5.10;;;;;;;12.36;71.66;100752.58;103581;1284;95853;-86
2022/10/06 00:52:20;;;;;;;8.70;5.50;;;;;;;12.35;71.88;100753.48;104041;1284;108671;-86
2022/10/06 00:55:10;;;;;;;9.50;5.60;;;;;;;12.35;72.00;100755.11;103865;1284;98365;-84
2022/10/06 00:57:40;;;;;;;9.40;5.10;;;;;;;12.37;72.02;100753.09;103782;1284;107500;-86
2022/10/06 01:00:26;;;;;;;9.00;4.90;;;;;;;12.40;72.09;100746.25;103765;1284;95647;-84
2022/10/06 01:03:08;;;;;;;8.30;4.80;;;;;;;12.41;72.12;100746.20;103852;1284;95155;-85
2022/10/06 01:05:45;;;;;;;9.00;4.90;;;;;;;12.45;72.13;100748.23;103703;1284;108585;-82
2022/10/06 01:08:14;;;;;;;9.10;4.70;;;;;;;12.48;72.18;100747.80;103897;1284;98808;-85
2022/10/06 01:10:43;;;;;;;7.90;4.40;;;;;;;12.50;72.02;100748.98;103693;1284;109317;-86
2022/10/06 01:13:13;;;;;;;9.80;4.50;;;;;;;12.53;72.09;100743.02;104047;1284;95808;-85
2022/10/06 01:16:15;;;;;;;9.60;4.30;;;;;;;12.56;71.97;100744.55;103789;1284;95229;-84
2022/10/06 01:18:46;;;;;;;9.40;4.50;;;;;;;12.59;72.03;100740.53;103803;1284;108706;-83
2022/10/06 01:21:33;;;;;;;8.10;4.60;;;;;;;12.62;71.94;100739.20;104109;1284;98887;-84
2022/10/06 01:24:03;;;;;;;7.20;4.20;;;;;;;12.65;71.80;100737.86;103791;1284;109703;-84
2022/10/06 01:26:49;;;;;;;10.40;4.60;;;;;;;12.67;71.79;100735.67;103967;1283;96159;-84
2022/10/06 01:29:52;;;;;;;8.00;4.30;;;;;;;12.68;71.78;100733.84;103954;1284;95664;-85
2022/10/06 01:32:34;;;;;;;8.50;4.40;;;;;;;12.70;71.77;100735.77;104013;1284;109232;-85
2022/10/06 01:35:06;;;;;;;8.50;4.50;;;;;;;12.71;71.71;100732.89;103902;1284;98802;-85
2022/10/06 01:37:34;;;;;;;9.20;4.30;;;;;;;12.73;71.63;100735.16;103843;1284;106757;-85
2022/10/06 01:40:05;;;;;;;8.40;4.30;;;;;;;12.72;71.63;100728.23;103663;1284;95931;-84
2022/10/06 01:42:36;;;;;;;10.20;4.40;;;;;;;12.74;71.67;100728.70;103958;1284;95216;-83
2022/10/06 01:45:07;;;;;;;7.50;4.40;;;;;;;12.76;71.79;100730.41;103764;1285;108651;-85
2022/10/06 01:47:37;;;;;;;8.30;4.20;;;;;;;12.78;71.58;100727.33;104079;1284;100007;-83
2022/10/06 01:50:07;;;;;;;8.50;4.00;;;;;;;12.80;71.59;100725.65;103872;1284;107734;-85
2022/10/06 01:52:36;;;;;;;9.70;4.40;;;;;;;12.80;71.47;100729.23;104039;1284;95343;-85
2022/10/06 01:55:05;;;;;;;7.60;4.30;;;;;;;12.75;71.53;100726.33;103884;1284;96397;-84
2022/10/06 01:57:39;;;;;;;7.60;4.20;;;;;;;12.73;71.62;100724.82;103965;1284;110132;-85
2022/10/06 02:00:23;;;;;;;8.30;4.20;;;;;;;12.71;71.76;100727.70;103673;1284;100246;-85
2022/10/06 02:03:06;;;;;;;7.50;4.00;;;;;;;12.69;71.87;100724.04;104016;1284;107808;-83
2022/10/06 02:05:55;;;;;;;7.50;4.40;;;;;;;12.71;71.92;100723.08;104009;1284;95449;-85
2022/10/06 02:08:45;;;;;;;9.60;4.40;;;;;;;12.69;71.85;100724.38;103638;1284;95256;-81
2022/10/06 02:11:13;;;;;;;6.40;4.00;;;;;;;12.70;71.76;100724.34;103734;1284;107701;-84
2022/10/06 02:13:42;;;;;;;7.60;4.20;;;;;;;12.74;71.98;100723.72;103804;1284;98366;-85
2022/10/06 02:16:12;;;;;;;7.30;4.40;;;;;;;12.76;71.80;100727.02;103518;1284;109278;-84
2022/10/06 02:18:42;;;;;;;8.20;4.30;;;;;;;12.76;71.84;100727.03;104014;1284;95667;-84
2022/10/06 02:21:19;;;;;;;7.60;4.30;;;;;;;12.75;71.97;100724.56;103879;1284;95163;-84
2022/10/06 02:23:47;;;;;;;7.50;4.20;;;;;;;12.73;71.93;100726.07;104059;1283;108661;-85
2022/10/06 02:26:19;;;;;;;7.80;4.20;;;;;;;12.71;71.75;100729.48;104174;1284;98426;-85
2022/10/06 02:29:09;;;;;;;7.70;4.40;;;;;;;12.72;71.88;100731.44;103832;1285;109381;-84
2022/10/06 02:31:37;;;;;;;7.00;4.10;;;;;;;12.71;71.89;100732.34;103843;1284;95749;-83
2022/10/06 02:34:26;;;;;;;8.50;3.90;;;;;;;12.70;72.10;100734.86;103985;1284;95305;-84
2022/10/06 02:36:54;;;;;;;7.70;4.10;;;;;;;12.67;72.02;100736.36;104082;1284;111321;-84
2022/10/06 02:39:22;;;;;;;7.00;4.10;;;;;;;12.68;72.06;100737.96;103961;1284;98929;-84
2022/10/06 02:41:51;;;;;;;9.20;4.10;;;;;;;12.68;72.17;100736.01;103965;1284;109390;-83
2022/10/06 02:44:27;;;;;;;9.10;4.30;;;;;;;12.67;72.16;100736.92;104003;1284;96094;-84
2022/10/06 02:47:02;;;;;;;8.20;4.10;;;;;;;12.65;72.24;100739.65;103941;1284;95962;-85
2022/10/06 02:49:30;;;;;;;8.70;4.20;;;;;;;12.66;72.14;100739.63;103852;1284;108549;-85
2022/10/06 02:51:58;;;;;;;8.00;4.40;;;;;;;12.68;72.18;100741.52;103810;1284;98972;-85
2022/10/06 02:54:26;;;;;;;9.10;4.30;;;;;;;12.69;72.20;100739.36;104011;1284;109444;-85
2022/10/06 02:56:54;;;;;;;7.70;4.30;;;;;;;12.70;72.10;100740.20;103981;1284;95382;-84
2022/10/06 02:59:26;;;;;;;9.10;4.00;;;;;;;12.71;72.07;100741.07;104035;1284;95340;-85
2022/10/06 03:01:56;;;;;;;7.30;3.90;;;;;;;12.70;72.13;100742.17;103869;1284;109311;-85
2022/10/06 03:04:29;;;;;;;8.00;3.90;;;;;;;12.70;72.09;100742.35;104101;1283;98370;-84
2022/10/06 03:06:57;;;;;;;10.00;4.10;;;;;;;12.70;72.15;100746.27;103809;1284;108028;-85
2022/10/06 03:09:31;;;;;;;8.50;4.50;;;;;;;12.70;72.19;100750.02;104119;1284;95241;-83
2022/10/06 03:11:59;;;;;;;7.60;3.70;;;;;;;12.69;72.22;100750.95;103808;1284;95805;-83
2022/10/06 03:14:47;;;;;;;8.20;3.80;;;;;;;12.68;72.23;100752.03;104086;1284;108821;-83
2022/10/06 03:17:16;;;;;;;7.20;3.90;;;;;;;12.68;72.32;100752.73;104033;1283;97463;-85
2022/10/06 03:19:49;;;;;;;8.50;4.20;;;;;;;12.68;72.23;100755.59;103982;1284;107697;-84
2022/10/06 03:22:19;;;;;;;8.50;4.10;;;;;;;12.66;72.38;100752.79;103816;1284;96130;-84
2022/10/06 03:25:14;;;;;;;7.40;4.20;;;;;;;12.65;72.52;100749.27;103850;1284;95266;-83
2022/10/06 03:27:41;;;;;;;8.00;4.20;;;;;;;12.64;72.59;100751.63;103851;1284;108556;-85
2022/10/06 03:30:11;;;;;;;8.00;4.10;;;;;;;12.62;72.59;100754.17;103991;1284;98806;-83
2022/10/06 03:32:39;;;;;;;8.10;4.10;;;;;;;12.62;72.62;100753.27;103960;1284;107660;-85
2022/10/06 03:35:07;;;;;;;8.60;3.80;;;;;;;12.62;72.79;100760.23;103944;1284;96025;-84
2022/10/06 03:37:35;;;;;;;7.90;4.10;;;;;;;12.62;72.80;100760.94;104188;1284;95183;-85
2022/10/06 03:40:04;;;;;;;7.10;4.00;;;;;;;12.61;72.84;100764.70;104031;1284;110670;-84
2022/10/06 03:42:53;;;;;;;8.70;3.80;;;;;;;12.64;72.65;100764.24;103854;1284;98281;-84
2022/10/06 03:45:21;;;;;;;7.10;4.00;;;;;;;12.66;72.71;100764.19;104038;1284;107962;-84
2022/10/06 03:47:49;;;;;;;6.90;3.60;;;;;;;12.67;72.75;100769.17;103811;1284;96154;-85
2022/10/06 03:50:32;;;;;;;8.50;4.30;;;;;;;12.65;72.80;100766.19;104126;1284;95156;-84
2022/10/06 03:53:02;;;;;;;7.80;4.10;;;;;;;12.67;72.84;100767.22;103935;1284;107128;-83
2022/10/06 03:55:31;;;;;;;8.60;4.20;;;;;;;12.67;72.72;100768.08;103712;1285;98462;-83
2022/10/06 03:57:59;;;;;;;7.90;4.40;;;;;;;12.65;72.74;100771.54;104066;1284;107740;-84
2022/10/06 04:00:31;;;;;;;8.20;3.90;;;;;;;12.64;72.88;100771.04;104028;1283;95805;-84
2022/10/06 04:02:59;;;;;;;9.30;4.00;;;;;;;12.64;72.88;100776.20;104085;1284;95884;-85
2022/10/06 04:05:55;;;;;;;7.50;4.30;;;;;;;12.64;72.88;100777.42;103945;1284;109853;-84
2022/10/06 04:08:24;;;;;;;9.90;4.10;;;;;;;12.66;72.91;100782.02;103836;1285;99694;-84
2022/10/06 04:10:54;;;;;;;7.70;4.00;;;;;;;12.68;72.83;100780.70;104162;1284;109711;-84
2022/10/06 04:13:22;;;;;;;9.50;4.40;;;;;;;12.67;72.96;100780.38;103888;1284;95235;-84
2022/10/06 04:15:50;;;;;;;8.20;4.00;;;;;;;12.66;72.91;100779.35;103916;1284;95357;-82
2022/10/06 04:18:19;;;;;;;6.90;4.10;;;;;;;12.66;72.96;100778.10;104157;1284;108382;-86
2022/10/06 04:20:50;;;;;;;52.80;33.10;;;;;;;12.65;73.05;100783.83;103941;1283;98708;-84
2022/10/06 04:23:20;;;;;;;11.80;6.90;;;;;;;12.66;73.07;100787.71;104050;1284;107742;-84
2022/10/06 04:25:59;;;;;;;8.00;3.90;;;;;;;12.67;73.07;100790.54;103910;1284;95354;-84
2022/10/06 04:29:09;;;;;;;8.40;4.10;;;;;;;12.69;73.05;100789.23;103822;1285;96265;-86
2022/10/06 04:31:41;;;;;;;9.10;4.10;;;;;;;12.69;72.99;100790.13;104097;1283;110904;-84
2022/10/06 04:34:30;;;;;;;8.00;4.30;;;;;;;12.71;72.98;100797.19;103748;1284;97625;-85
2022/10/06 04:37:00;;;;;;;7.90;3.90;;;;;;;12.73;72.94;100798.59;103760;1284;108374;-84
2022/10/06 04:39:49;;;;;;;8.00;4.10;;;;;;;12.74;72.98;100797.30;103891;1284;95625;-86
2022/10/06 04:42:19;;;;;;;9.00;4.40;;;;;;;12.74;72.94;100802.48;103839;1284;95237;-84
2022/10/06 04:44:49;;;;;;;6.60;4.20;;;;;;;12.73;73.01;100802.67;103805;1284;108760;-85
2022/10/06 04:47:17;;;;;;;8.40;4.40;;;;;;;12.74;72.97;100804.77;104048;1284;98149;-84
2022/10/06 04:49:55;;;;;;;9.00;4.40;;;;;;;12.76;72.91;100807.77;103871;1283;108491;-84
2022/10/06 04:52:28;;;;;;;7.40;4.30;;;;;;;12.76;73.01;100817.04;104037;1284;95550;-84
2022/10/06 04:54:56;;;;;;;9.10;4.70;;;;;;;12.75;73.08;100810.80;103860;1284;95285;-84
2022/10/06 04:57:45;;;;;;;9.60;4.40;;;;;;;12.73;73.14;100815.84;103906;1284;110147;-86
2022/10/06 05:00:24;;;;;;;10.80;4.40;;;;;;;12.77;73.02;100818.95;103657;1284;98666;-84
2022/10/06 05:02:54;;;;;;;15.20;9.40;;;;;;;12.80;73.10;100822.60;104100;1284;109420;-84
2022/10/06 05:05:23;;;;;;;14.20;8.20;;;;;;;12.82;72.99;100822.18;103497;1285;95534;-83
2022/10/06 05:08:11;;;;;;;7.80;4.30;;;;;;;12.84;72.87;100825.52;103898;1284;95219;-85
2022/10/06 05:10:41;;;;;;;7.80;4.20;;;;;;;12.85;72.81;100833.69;103975;1284;110168;-84
2022/10/06 05:13:11;;;;;;;9.20;4.60;;;;;;;12.86;72.96;100836.14;103939;1285;98392;-84
2022/10/06 05:15:39;;;;;;;7.70;4.00;;;;;;;12.87;72.98;100841.64;104195;1284;108516;-83
2022/10/06 05:18:07;;;;;;;8.80;4.70;;;;;;;12.92;72.87;100843.83;103844;1284;95192;-85
2022/10/06 05:20:35;;;;;;;8.80;4.70;;;;;;;12.92;72.89;100852.23;103932;1284;95219;-85
2022/10/06 05:23:06;;;;;;;7.80;4.30;;;;;;;12.91;72.94;100853.31;103752;1285;108608;-82
2022/10/06 05:25:56;;;;;;;7.80;5.20;;;;;;;12.91;73.01;100851.34;106482;1283;100201;-85
2022/10/06 05:28:27;;;;;;;8.80;4.40;;;;;;;12.93;73.03;100852.02;104152;1284;106533;-83
2022/10/06 05:31:02;;;;;;;8.20;4.40;;;;;;;12.96;73.04;100848.68;105472;1283;95173;-83
2022/10/06 05:33:33;;;;;;;10.00;4.70;;;;;;;13.01;72.90;100851.59;104333;1284;95716;-83
2022/10/06 05:36:12;;;;;;;8.40;4.30;;;;;;;13.05;72.95;100856.65;103990;1284;109337;-84
2022/10/06 05:39:02;;;;;;;8.20;4.20;;;;;;;13.09;72.90;100856.69;103971;1283;99207;-84
2022/10/06 05:41:37;;;;;;;7.90;4.30;;;;;;;13.13;72.83;100859.25;104025;1284;107616;-84
2022/10/06 05:44:09;;;;;;;7.40;4.30;;;;;;;13.19;72.68;100859.08;103992;1284;95700;-83
2022/10/06 05:46:43;;;;;;;8.90;4.20;;;;;;;13.26;72.60;100865.48;103818;1284;95326;-84
2022/10/06 05:49:31;;;;;;;8.70;4.10;;;;;;;13.30;72.40;100869.63;103713;1284;108900;-84
2022/10/06 05:52:03;;;;;;;7.90;4.10;;;;;;;13.35;72.48;100873.95;103887;1284;98391;-83
2022/10/06 05:54:34;;;;;;;9.00;4.10;;;;;;;13.39;72.30;100878.66;103860;1284;107793;-85
2022/10/06 05:57:07;;;;;;;9.10;3.80;;;;;;;13.45;72.25;100880.26;103983;1284;95229;-84
2022/10/06 05:59:39;;;;;;;7.80;3.90;;;;;;;13.51;72.09;100885.05;103802;1284;95152;-83
2022/10/06 06:02:08;;;;;;;9.30;4.10;;;;;;;13.59;71.98;100893.59;104058;1284;108557;-83
2022/10/06 06:04:42;;;;;;;8.20;3.90;;;;;;;13.64;71.98;100896.28;103889;1284;102192;-86
2022/10/06 06:07:11;;;;;;;8.50;3.90;;;;;;;13.68;71.77;100897.74;103795;1284;108623;-83
2022/10/06 06:09:41;;;;;;;7.20;3.90;;;;;;;13.75;71.69;100903.08;104091;1284;95340;-84
2022/10/06 06:12:09;;;;;;;9.00;4.30;;;;;;;13.78;71.63;100899.77;104121;1284;95772;-83
2022/10/06 06:17:32;;;;;;;8.60;4.30;;;;;;;13.93;71.44;100913.58;104319;1284;98331;-83
2022/10/06 06:20:03;;;;;;;8.60;4.30;;;;;;;14.01;71.20;100919.92;104389;1284;108468;-83
2022/10/06 06:22:32;;;;;;;11.20;4.30;;;;;;;14.06;71.13;100924.04;104273;1284;95898;-84
2022/10/06 06:25:01;;;;;;;9.80;4.50;;;;;;;14.08;71.12;100929.70;104236;1285;96014;-83
2022/10/06 06:27:34;;;;;;;8.90;4.10;;;;;;;14.12;71.12;100932.41;104226;1284;108697;-84
2022/10/06 06:30:03;;;;;;;10.70;4.20;;;;;;;14.17;70.81;100942.26;103734;1285;98876;-83
2022/10/06 06:32:31;;;;;;;11.50;4.40;;;;;;;14.23;70.78;100946.52;104044;1284;110085;-84
2022/10/06 06:34:59;;;;;;;10.10;4.20;;;;;;;14.33;70.69;100954.44;103692;1284;96106;-84
2022/10/06 06:37:30;;;;;;;9.30;4.30;;;;;;;14.45;70.74;100957.07;103902;1284;95200;-83
2022/10/06 06:39:59;;;;;;;10.00;4.50;;;;;;;14.52;70.55;100958.96;103897;1284;110448;-85
2022/10/06 06:42:48;;;;;;;10.90;5.00;;;;;;;14.58;70.24;100966.84;104239;1284;98433;-83
2022/10/06 06:45:40;;;;;;;10.80;4.70;;;;;;;14.60;70.41;100967.28;103975;1284;107793;-84
2022/10/06 06:48:30;;;;;;;8.60;4.10;;;;;;;14.65;70.37;100978.02;103804;1284;95124;-84
2022/10/06 06:50:59;;;;;;;8.00;4.00;;;;;;;14.70;70.17;100981.64;103910;1284;95289;-83
2022/10/06 06:53:38;;;;;;;10.20;4.50;;;;;;;14.75;69.99;100982.73;103970;1284;109817;-83
2022/10/06 06:56:08;;;;;;;7.40;3.90;;;;;;;14.78;70.07;100984.23;103759;1284;100519;-84
2022/10/06 06:58:37;;;;;;;11.00;4.80;;;;;;;14.79;70.07;100983.86;103791;1284;107842;-85
2022/10/06 07:01:13;;;;;;;9.40;5.00;;;;;;;14.81;69.93;100992.36;103814;1285;95450;-82
2022/10/06 07:03:45;;;;;;;9.50;4.50;;;;;;;14.81;69.95;100993.08;103812;1283;95613;-83
2022/10/06 07:06:29;;;;;;;10.10;4.40;;;;;;;14.82;69.83;100999.98;103835;1284;109053;-84
2022/10/06 07:09:00;;;;;;;8.40;4.40;;;;;;;14.81;69.86;101004.51;103954;1284;98897;-83
2022/10/06 07:11:32;;;;;;;10.00;5.40;;;;;;;14.82;69.88;101004.98;103776;1284;109238;-84
2022/10/06 07:14:11;;;;;;;11.30;5.80;;;;;;;14.84;69.89;101008.34;103728;1284;95735;-83
2022/10/06 07:25:25;;;;;;;9.50;4.40;;;;;;;14.89;69.90;101017.98;103797;1284;109196;-84
2022/10/06 07:28:02;;;;;;;9.00;4.50;;;;;;;14.87;69.96;101017.52;103865;1285;95328;-85
2022/10/06 07:30:37;;;;;;;8.20;4.40;;;;;;;14.87;70.11;101021.98;103819;1285;95324;-86
2022/10/06 07:33:17;;;;;;;8.70;4.50;;;;;;;14.93;70.32;101024.66;103865;1284;108836;-84
2022/10/06 07:35:47;;;;;;;8.60;4.40;;;;;;;14.97;70.29;101024.89;103914;1284;98402;-83
2022/10/06 07:38:17;;;;;;;8.90;4.40;;;;;;;15.00;70.29;101028.31;104012;1284;107869;-86
2022/10/06 07:40:55;;;;;;;9.20;4.10;;;;;;;14.99;70.28;101030.70;104019;1284;95242;-84
2022/10/06 07:43:45;;;;;;;9.20;3.90;;;;;;;14.99;70.36;101033.92;103944;1284;95249;-84
2022/10/06 07:46:17;;;;;;;8.80;3.70;;;;;;;15.02;70.39;101035.23;104006;1284;108748;-83
2022/10/06 07:49:18;;;;;;;8.20;3.90;;;;;;;15.08;70.25;101033.80;103602;1284;96783;-83
2022/10/06 07:52:06;;;;;;;9.70;4.20;;;;;;;15.15;70.04;101034.07;103709;1284;108043;-84
2022/10/06 07:54:37;;;;;;;9.30;4.40;;;;;;;15.22;70.03;101033.47;103776;1283;95255;-85
2022/10/06 07:57:29;;;;;;;9.40;4.00;;;;;;;15.28;69.75;101035.77;103692;1284;95496;-85
2022/10/06 07:59:57;;;;;;;10.30;4.10;;;;;;;15.32;69.66;101029.21;103801;1284;110423;-82
2022/10/06 08:02:38;;;;;;;9.30;4.10;;;;;;;15.42;69.64;101028.83;104123;1282;99161;-85
2022/10/06 08:05:07;;;;;;;9.30;4.10;;;;;;;15.49;69.50;101027.84;103859;1285;106232;-84
2022/10/06 08:07:36;;;;;;;10.50;4.40;;;;;;;15.59;69.31;101033.06;104128;1284;95783;-84
2022/10/06 08:10:05;;;;;;;8.70;4.10;;;;;;;15.67;68.93;101042.61;103848;1284;95700;-85
2022/10/06 08:12:36;;;;;;;9.00;3.90;;;;;;;15.78;68.90;101051.50;104011;1284;108730;-85
2022/10/06 08:15:07;;;;;;;8.10;3.90;;;;;;;15.93;68.61;101054.54;103895;1284;98689;-85
2022/10/06 08:17:38;;;;;;;9.60;4.10;;;;;;;16.03;67.95;101055.07;104152;1284;108785;-85
2022/10/06 08:20:10;;;;;;;10.00;4.20;;;;;;;16.16;68.22;101054.20;103933;1284;95632;-86
2022/10/06 08:22:38;;;;;;;8.90;3.90;;;;;;;16.31;67.85;101050.74;103947;1284;95226;-83
2022/10/06 08:25:09;;;;;;;8.90;4.20;;;;;;;16.41;67.21;101055.01;103975;1283;110244;-85
2022/10/06 08:27:42;;;;;;;6.80;3.60;;;;;;;16.57;67.02;101051.68;104000;1284;100022;-85
2022/10/06 08:30:25;;;;;;;8.00;3.80;;;;;;;16.70;66.46;101052.20;103848;1284;107830;-85
2022/10/06 08:32:55;;;;;;;8.80;4.00;;;;;;;16.77;66.28;101049.60;103956;1284;95788;-84
2022/10/06 08:35:23;;;;;;;7.30;3.70;;;;;;;16.83;66.21;101054.02;104098;1284;95536;-86
2022/10/06 08:37:53;;;;;;;7.70;3.90;;;;;;;16.92;66.13;101054.38;103815;1283;109246;-84
2022/10/06 08:40:48;;;;;;;8.10;3.50;;;;;;;17.02;65.94;101048.23;103636;1284;99913;-83
2022/10/06 08:43:19;;;;;;;8.30;4.00;;;;;;;17.11;65.79;101052.68;103871;1284;107809;-85
2022/10/06 08:46:01;;;;;;;7.80;3.80;;;;;;;17.21;65.68;101054.42;104137;1284;95273;-85
2022/10/06 08:48:37;;;;;;;8.40;4.00;;;;;;;17.33;64.97;101058.58;103775;1284;95166;-85
2022/10/06 08:51:21;;;;;;;7.50;3.40;;;;;;;18.70;62.89;101056.45;103870;1285;110142;-85
2022/10/06 08:54:02;;;;;;;7.10;3.50;;;;;;;20.89;56.61;101049.40;103917;1284;98921;-84
2022/10/06 08:56:47;;;;;;;7.80;3.30;;;;;;;22.40;53.50;101057.99;103913;1285;107854;-83
2022/10/06 08:59:15;;;;;;;8.00;3.50;;;;;;;23.40;50.56;101064.04;103758;1284;95642;-86
2022/10/06 09:01:48;;;;;;;7.20;3.50;;;;;;;23.06;50.69;101067.26;103485;1284;95362;-84
2022/10/06 09:04:27;;;;;;;7.60;3.30;;;;;;;22.76;51.50;101078.67;103997;1284;110286;-84
2022/10/06 09:07:14;;;;;;;8.40;3.60;;;;;;;22.16;52.00;101085.02;103791;1284;98582;-85
2022/10/06 09:09:52;;;;;;;7.10;3.30;;;;;;;21.69;53.28;101092.52;103859;1284;107792;-84
2022/10/06 09:12:42;;;;;;;6.70;3.30;;;;;;;21.39;53.88;101094.13;103878;1284;95575;-83
2022/10/06 09:15:34;;;;;;;7.30;3.60;;;;;;;20.95;55.36;101097.27;104035;1284;95343;-86
2022/10/06 09:18:29;;;;;;;6.30;3.40;;;;;;;20.65;56.20;101109.81;103985;1284;110235;-86
2022/10/06 09:21:29;;;;;;;7.50;3.70;;;;;;;20.28;56.70;101111.73;103865;1283;98566;-88
2022/10/06 09:24:06;;;;;;;6.90;3.60;;;;;;;20.06;57.24;101113.98;103762;1284;109652;-86
2022/10/06 09:26:34;;;;;;;7.80;3.50;;;;;;;20.44;56.85;101115.30;103415;1284;95720;-85
2022/10/06 09:29:03;;;;;;;7.50;3.60;;;;;;;20.84;55.54;101107.45;103921;1284;95348;-86
2022/10/06 09:31:43;;;;;;;7.30;4.00;;;;;;;21.42;54.10;101114.36;103778;1284;109040;-86
2022/10/06 09:34:38;;;;;;;7.30;3.80;;;;;;;21.51;53.47;101115.84;103821;1284;97276;-88
2022/10/06 09:37:09;;;;;;;7.20;3.80;;;;;;;21.46;54.18;101122.48;103839;1284;107785;-89
2022/10/06 09:39:47;;;;;;;7.20;3.60;;;;;;;21.73;53.70;101122.46;103769;1284;95952;-87
2022/10/06 09:42:46;;;;;;;8.40;4.10;;;;;;;21.83;53.50;101117.88;103858;1284;95785;-86
2022/10/06 09:45:14;;;;;;;7.30;3.60;;;;;;;23.23;51.23;101121.69;103953;1284;108786;-87
2022/10/06 09:47:43;;;;;;;7.10;3.40;;;;;;;23.85;49.58;101121.27;103778;1284;97709;-85
2022/10/06 09:50:24;;;;;;;6.40;3.40;;;;;;;23.77;49.91;101126.73;103683;1284;109560;-86
2022/10/06 09:53:17;;;;;;;7.00;3.40;;;;;;;24.01;49.99;101130.10;103902;1284;95507;-83
2022/10/06 09:55:52;;;;;;;6.50;3.30;;;;;;;23.77;48.64;101134.48;103831;1284;95674;-88
2022/10/06 09:58:53;;;;;;;6.70;3.30;;;;;;;22.74;50.20;101139.79;103673;1284;110170;-84
2022/10/06 10:01:50;;;;;;;7.00;3.30;;;;;;;22.07;51.62;101145.63;103821;1284;98549;-86
2022/10/06 10:04:29;;;;;;;6.50;3.00;;;;;;;21.52;52.59;101147.53;103953;1284;109820;-86
2022/10/06 10:07:35;;;;;;;7.40;3.40;;;;;;;21.41;53.77;101150.91;103915;1284;95894;-84
2022/10/06 10:10:23;;;;;;;7.20;3.50;;;;;;;23.81;49.61;101151.02;103763;1282;95232;-83
2022/10/06 10:13:18;;;;;;;7.90;3.50;;;;;;;26.30;44.36;101148.85;103855;1284;108826;-84
2022/10/06 10:16:01;;;;;;;7.50;3.10;;;;;;;27.67;41.80;101150.39;103777;1284;98183;-85
2022/10/06 10:18:30;;;;;;;7.60;3.10;;;;;;;28.89;39.67;101152.59;103962;1284;107757;-86
2022/10/06 10:21:03;;;;;;;7.20;3.40;;;;;;;29.18;38.25;101155.77;103879;1284;95583;-87
2022/10/06 10:23:41;;;;;;;5.90;3.10;;;;;;;27.63;40.82;101155.52;103793;1284;96130;-87
2022/10/06 10:26:40;;;;;;;5.60;3.10;;;;;;;26.62;42.22;101157.08;103592;1284;108843;-85
2022/10/06 10:29:41;;;;;;;7.30;3.60;;;;;;;25.42;43.77;101157.58;103913;1284;98388;-85
2022/10/06 10:32:16;;;;;;;6.90;3.30;;;;;;;24.37;46.11;101168.36;103775;1284;107886;-85
2022/10/06 10:34:51;;;;;;;5.80;3.10;;;;;;;23.72;47.60;101169.52;103737;1285;95538;-85
2022/10/06 10:37:22;;;;;;;7.90;3.50;;;;;;;23.11;48.66;101166.34;103735;1284;95228;-84
2022/10/06 10:39:59;;;;;;;6.90;3.50;;;;;;;22.58;50.28;101165.83;103968;1284;108543;-84
2022/10/06 10:42:55;;;;;;;6.40;3.10;;;;;;;22.06;51.56;101171.23;103809;1284;99310;-85
2022/10/06 10:45:40;;;;;;;7.60;3.70;;;;;;;21.63;52.57;101178.21;103780;1284;107250;-86
2022/10/06 10:48:38;;;;;;;7.70;3.70;;;;;;;21.24;53.77;101182.84;103497;1284;95296;-84
2022/10/06 10:51:25;;;;;;;7.30;3.80;;;;;;;20.92;54.69;101189.33;103950;1284;95290;-87
2022/10/06 10:54:27;;;;;;;7.50;3.70;;;;;;;20.62;55.84;101189.01;103841;1284;108651;-85
2022/10/06 10:56:57;;;;;;;7.80;3.50;;;;;;;20.48;56.33;101190.66;103644;1284;98857;-85
2022/10/06 11:00:06;;;;;;;7.50;3.30;;;;;;;20.34;56.91;101191.61;103644;1284;107748;-84
2022/10/06 11:02:38;;;;;;;6.20;3.20;;;;;;;20.28;57.38;101198.98;103896;1284;96210;-85
2022/10/06 11:05:51;;;;;;;8.80;4.00;;;;;;;20.23;58.07;101198.55;103686;1284;95821;-87
2022/10/06 11:08:37;;;;;;;8.00;3.70;;;;;;;20.12;58.18;101201.29;103747;1282;108601;-84
2022/10/06 11:11:33;;;;;;;10.50;4.70;;;;;;;19.92;58.80;101200.57;103668;1284;99096;-84
2022/10/06 11:14:14;;;;;;;10.00;5.20;;;;;;;19.82;59.36;101195.85;103729;1284;107861;-86
2022/10/06 11:17:18;;;;;;;11.40;6.10;;;;;;;19.79;59.61;101191.29;103699;1284;95634;-84
2022/10/06 11:20:01;;;;;;;9.10;3.40;;;;;;;19.83;59.70;101195.63;103767;1284;95188;-84
2022/10/06 11:22:43;;;;;;;6.90;3.00;;;;;;;19.82;59.19;101198.20;103892;1284;109377;-86
2022/10/06 11:25:41;;;;;;;6.30;2.60;;;;;;;19.76;59.16;101197.02;104000;1284;98331;-86
2022/10/06 11:28:24;;;;;;;7.40;3.10;;;;;;;19.74;59.80;101193.33;103722;1284;107803;-86
2022/10/06 11:31:29;;;;;;;5.80;2.90;;;;;;;19.76;60.01;101195.95;103608;1284;95453;-84
2022/10/06 11:34:00;;;;;;;6.20;2.70;;;;;;;19.77;59.93;101205.61;103720;1283;95240;-83
2022/10/06 11:36:52;;;;;;;7.20;3.10;;;;;;;19.78;59.46;101218.55;103856;1284;108829;-85
2022/10/06 11:39:36;;;;;;;7.20;2.80;;;;;;;19.76;59.22;101221.73;103809;1284;98571;-87
2022/10/06 11:42:36;;;;;;;6.20;2.80;;;;;;;19.76;59.37;101220.98;103879;1284;109190;-86
2022/10/06 11:45:12;;;;;;;5.80;2.80;;;;;;;19.78;59.14;101222.35;103673;1284;95295;-89
2022/10/06 11:48:06;;;;;;;5.70;3.00;;;;;;;19.74;58.87;101228.13;103749;1284;96043;-85
2022/10/06 11:51:23;;;;;;;7.40;2.90;;;;;;;19.65;58.95;101224.61;103688;1284;109866;-86
2022/10/06 11:53:55;;;;;;;6.20;3.00;;;;;;;19.63;59.42;101228.70;104025;1284;100138;-82
2022/10/06 11:56:32;;;;;;;7.40;2.90;;;;;;;19.66;59.68;101233.40;103677;1284;106260;-85
2022/10/06 11:59:24;;;;;;;7.60;2.80;;;;;;;19.68;59.67;101237.21;103696;1284;95300;-83
2022/10/06 12:01:54;;;;;;;6.70;2.60;;;;;;;19.67;58.42;101230.43;103541;1284;95253;-85
2022/10/06 12:04:25;;;;;;;5.90;3.00;;;;;;;19.70;58.05;101227.58;103644;1285;108821;-84
2022/10/06 12:07:12;;;;;;;6.60;2.40;;;;;;;19.75;57.94;101225.20;103700;1284;99997;-85
2022/10/06 12:10:30;;;;;;;6.30;2.30;;;;;;;19.79;57.37;101232.20;103823;1284;107754;-87